Liguria — IRKJ — position and weather

sailwx.info

Track history (hours):
 
Tides and Currents Weather Stations Pressure Air Temp Water Temp Dewpoint Dewpoint Depression Visibility Wind Speed Wind Dir Waves Ship Positions

Liguria

Last reported at 2016-Dec-09 07:32 UTC. Time now 2016-Dec-09 07:54 UTC.
Position N 44°18' E 008°29'.

Length 30 m; draft 4.5 m.

Type: Tug. MMSI: 247228500.

Date/timePositionNaut miles runAvg speedWind from/ knotsBaromVisibWave heightAir tempDewpointWater temp
2016-Dec-09 07:32N 44°18' E 008°29'0 0.0
2016-Dec-09 06:32N 44°18' E 008°29'0 0.0
2016-Dec-09 05:32N 44°18' E 008°29'0 0.0
2016-Dec-08 23:15N 44°18' E 008°29'0 0.0
2016-Dec-08 12:28N 44°18' E 008°29'0 0.0
2016-Dec-08 09:32N 44°18' E 008°29'0 0.0
2016-Dec-08 08:32N 44°18' E 008°29'0 0.0
2016-Dec-08 07:32N 44°18' E 008°29'0 0.0
2016-Dec-08 06:32N 44°18' E 008°29'0 0.0
2016-Dec-08 05:32N 44°18' E 008°29'0 0.0
2016-Dec-08 04:32N 44°18' E 008°29'3 2.9
2016-Dec-08 03:28N 44°16' E 008°27'0 0.1
2016-Dec-08 02:29N 44°16' E 008°27'1 0.8
2016-Dec-08 01:33N 44°16' E 008°28'1 0.7
2016-Dec-08 00:29N 44°17' E 008°28'1 1.4
2016-Dec-07 23:33N 44°17' E 008°29'1 0.1
2016-Dec-07 13:33N 44°18' E 008°29'0 0.0
2016-Dec-07 12:33N 44°18' E 008°29'0 0.0
2016-Dec-07 11:33N 44°18' E 008°29'0 0.0
2016-Dec-07 10:33N 44°18' E 008°29'2 2.1
2016-Dec-07 09:33N 44°17' E 008°28'0 0.0
2016-Dec-07 08:33N 44°17' E 008°28'1 1.0
2016-Dec-07 07:33N 44°16' E 008°28'1 0.8
2016-Dec-07 06:32N 44°16' E 008°27'4 3.8
2016-Dec-07 05:33N 44°19' E 008°30'0 0.1
2016-Dec-06 22:33N 44°18' E 008°29'0 0.3
2016-Dec-06 21:33N 44°19' E 008°30'0 0.3
2016-Dec-06 20:33N 44°18' E 008°29'0 0.0
2016-Dec-06 18:33N 44°18' E 008°29'0 0.0
2016-Dec-06 17:27N 44°18' E 008°29'0 0.0
2016-Dec-06 16:33N 44°18' E 008°29'0 0.0
2016-Dec-06 15:33N 44°18' E 008°29'0 0.5
2016-Dec-06 14:33N 44°19' E 008°30'0 0.5
2016-Dec-06 13:33N 44°18' E 008°29'0 0.0
2016-Dec-06 12:33N 44°18' E 008°29'0 0.0
2016-Dec-06 11:24N 44°18' E 008°29'2 2.7
2016-Dec-06 10:33N 44°16' E 008°28'0 0.3
2016-Dec-06 09:31N 44°17' E 008°28'2 2.2
2016-Dec-06 08:31N 44°18' E 008°29'0 0.0
2016-Dec-06 07:31N 44°18' E 008°29'0 0.0
2016-Dec-06 06:31N 44°18' E 008°29'0 0.0
2016-Dec-06 05:31N 44°18' E 008°29'0 0.0
2016-Dec-06 04:31N 44°18' E 008°29'0 0.0
2016-Dec-06 03:31N 44°18' E 008°29'0 0.0
2016-Dec-06 02:31N 44°18' E 008°29'0 0.0
2016-Dec-06 01:31N 44°18' E 008°29'0 0.0
2016-Dec-06 00:31N 44°18' E 008°29'0 0.0
2016-Dec-05 23:31N 44°18' E 008°29'0 0.0
2016-Dec-05 22:31N 44°18' E 008°29'0 0.0
2016-Dec-05 21:31N 44°18' E 008°29'0 0.0
2016-Dec-05 20:31N 44°18' E 008°29'0 0.0
2016-Dec-05 19:31N 44°18' E 008°29'0 0.0
2016-Dec-05 18:28N 44°18' E 008°29'1 1.0
2016-Dec-05 17:33N 44°19' E 008°31'1 0.9
2016-Dec-05 16:32N 44°18' E 008°29'0 0.0
2016-Dec-05 15:32N 44°18' E 008°29'0 0.0
2016-Dec-05 14:32N 44°18' E 008°29'0 0.0
2016-Dec-05 13:17N 44°18' E 008°29'0 0.0
2016-Dec-05 12:32N 44°18' E 008°29'0 0.0
2016-Dec-05 11:32N 44°18' E 008°29'0 0.0
2016-Dec-05 10:32N 44°18' E 008°29'0 0.0
2016-Dec-05 09:28N 44°18' E 008°29'2 2.3
2016-Dec-05 08:33N 44°17' E 008°28'1 0.8
2016-Dec-05 07:33N 44°16' E 008°28'4 3.5
2016-Dec-05 06:33N 44°19' E 008°31'0 0.3
2016-Dec-05 05:33N 44°19' E 008°30'1 0.1
2016-Dec-04 18:26N 44°18' E 008°29'0 0.0
2016-Dec-04 17:32N 44°18' E 008°29'0 0.0
2016-Dec-04 16:32N 44°18' E 008°29'0 0.0
2016-Dec-04 15:32N 44°18' E 008°29'0 0.0
2016-Dec-04 14:32N 44°18' E 008°29'0 0.0
2016-Dec-04 13:33N 44°19' E 008°29'1 1.0
2016-Dec-04 12:33N 44°18' E 008°31'3 2.7
2016-Dec-04 11:30N 44°17' E 008°28'0 0.4
2016-Dec-04 10:30N 44°17' E 008°28'2 1.7
2016-Dec-04 09:33N 44°18' E 008°29'1 0.8
2016-Dec-04 08:33N 44°19' E 008°29'0 0.1
2016-Dec-04 07:29N 44°18' E 008°29'0 0.0
2016-Dec-04 06:29N 44°18' E 008°29'0 0.0
2016-Dec-04 05:29N 44°18' E 008°29'0 0.0
2016-Dec-03 11:19N 44°18' E 008°29'1 1.0
2016-Dec-03 10:33N 44°18' E 008°29'2 1.7
2016-Dec-03 09:33N 44°17' E 008°28'0 0.2
2016-Dec-03 08:33N 44°16' E 008°28'2 1.9
2016-Dec-03 07:34N 44°18' E 008°29'1 0.7
2016-Dec-03 06:34N 44°18' E 008°29'0 0.0
2016-Dec-03 05:16N 44°18' E 008°29'0 0.0
2016-Dec-03 04:34N 44°18' E 008°29'0 0.0
2016-Dec-02 18:32N 44°18' E 008°29'0 0.0
2016-Dec-02 17:32N 44°18' E 008°29'0 0.0
2016-Dec-02 16:32N 44°18' E 008°29'0 0.0
2016-Dec-02 15:32N 44°18' E 008°29'0 0.0
2016-Dec-02 14:32N 44°18' E 008°29'0 0.0
2016-Dec-02 13:32N 44°18' E 008°29'0 0.0
2016-Dec-02 12:32N 44°18' E 008°29'0 0.0
2016-Dec-02 11:32N 44°18' E 008°29'0 0.1
2016-Dec-02 10:33N 44°19' E 008°29'0 0.1
2016-Dec-02 09:31N 44°18' E 008°29'0 0.0
2016-Dec-02 08:31N 44°18' E 008°29'0 0.0
2016-Dec-02 07:34N 44°18' E 008°29'1 0.8
2016-Dec-02 06:33N 44°19' E 008°30'3 3.1
2016-Dec-02 05:31N 44°16' E 008°28'3 0.1
2016-Dec-01 12:33N 44°18' E 008°29'0 0.0
2016-Dec-01 11:33N 44°18' E 008°29'0 0.0
2016-Dec-01 10:33N 44°18' E 008°29'0 0.0
2016-Dec-01 09:33N 44°18' E 008°29'0 0.0
2016-Dec-01 08:24N 44°18' E 008°29'0 0.0
2016-Dec-01 07:33N 44°18' E 008°29'0 0.0
2016-Dec-01 06:33N 44°18' E 008°29'1 0.5
2016-Dec-01 05:29N 44°19' E 008°30'0 0.1
2016-Dec-01 04:29N 44°19' E 008°30'0 0.4
2016-Dec-01 03:29N 44°18' E 008°29'0 0.0
2016-Dec-01 01:15N 44°18' E 008°29'0 0.0
2016-Dec-01 00:30N 44°18' E 008°29'0 0.0
2016-Nov-30 23:33N 44°18' E 008°29'0 0.0
2016-Nov-30 22:33N 44°18' E 008°29'0 0.0
2016-Nov-30 21:33N 44°18' E 008°29'0 0.0
2016-Nov-30 13:19N 44°18' E 008°29'0 0.0
2016-Nov-30 12:28N 44°18' E 008°29'0 0.0
2016-Nov-30 11:28N 44°18' E 008°29'0 0.0
2016-Nov-30 10:10N 44°18' E 008°29'0 0.0
2016-Nov-30 09:28N 44°18' E 008°29'0 0.0
2016-Nov-30 08:28N 44°18' E 008°29'0 0.0
2016-Nov-30 07:25N 44°18' E 008°29'0 0.0
2016-Nov-30 06:28N 44°18' E 008°29'1 0.5
2016-Nov-30 05:33N 44°19' E 008°30'0 0.1
2016-Nov-30 00:20N 44°18' E 008°29'0 0.0
2016-Nov-29 19:31N 44°18' E 008°29'0 0.0
2016-Nov-29 10:09N 44°18' E 008°29'0 0.0
2016-Nov-29 08:28N 44°18' E 008°29'  
Track history (hours):
 
Tides and Currents Weather Stations Pressure Air Temp Water Temp Dewpoint Dewpoint Depression Visibility Wind Speed Wind Dir Waves Ship Positions

Liguria

Last reported at 2016-Dec-09 07:32 UTC. Time now 2016-Dec-09 07:54 UTC.
Position N 44°18' E 008°29'.

Length 30 m; draft 4.5 m.

Type: Tug. MMSI: 247228500.

Date/timePositionNaut miles runAvg speedWind from/ knotsBaromVisibWave heightAir tempDewpointWater temp
2016-Dec-09 07:32N 44°18' E 008°29'0 0.0
2016-Dec-09 06:32N 44°18' E 008°29'0 0.0
2016-Dec-09 05:32N 44°18' E 008°29'0 0.0
2016-Dec-08 23:15N 44°18' E 008°29'0 0.0
2016-Dec-08 12:28N 44°18' E 008°29'0 0.0
2016-Dec-08 09:32N 44°18' E 008°29'0 0.0
2016-Dec-08 08:32N 44°18' E 008°29'0 0.0
2016-Dec-08 07:32N 44°18' E 008°29'0 0.0
2016-Dec-08 06:32N 44°18' E 008°29'0 0.0
2016-Dec-08 05:32N 44°18' E 008°29'0 0.0
2016-Dec-08 04:32N 44°18' E 008°29'3 2.9
2016-Dec-08 03:28N 44°16' E 008°27'0 0.1
2016-Dec-08 02:29N 44°16' E 008°27'1 0.8
2016-Dec-08 01:33N 44°16' E 008°28'1 0.7
2016-Dec-08 00:29N 44°17' E 008°28'1 1.4
2016-Dec-07 23:33N 44°17' E 008°29'1 0.1
2016-Dec-07 13:33N 44°18' E 008°29'0 0.0
2016-Dec-07 12:33N 44°18' E 008°29'0 0.0
2016-Dec-07 11:33N 44°18' E 008°29'0 0.0
2016-Dec-07 10:33N 44°18' E 008°29'2 2.1
2016-Dec-07 09:33N 44°17' E 008°28'0 0.0
2016-Dec-07 08:33N 44°17' E 008°28'1 1.0
2016-Dec-07 07:33N 44°16' E 008°28'1 0.8
2016-Dec-07 06:32N 44°16' E 008°27'4 3.8
2016-Dec-07 05:33N 44°19' E 008°30'0 0.1
2016-Dec-06 22:33N 44°18' E 008°29'0 0.3
2016-Dec-06 21:33N 44°19' E 008°30'0 0.3
2016-Dec-06 20:33N 44°18' E 008°29'0 0.0
2016-Dec-06 18:33N 44°18' E 008°29'0 0.0
2016-Dec-06 17:27N 44°18' E 008°29'0 0.0
2016-Dec-06 16:33N 44°18' E 008°29'0 0.0
2016-Dec-06 15:33N 44°18' E 008°29'0 0.5
2016-Dec-06 14:33N 44°19' E 008°30'0 0.5
2016-Dec-06 13:33N 44°18' E 008°29'0 0.0
2016-Dec-06 12:33N 44°18' E 008°29'0 0.0
2016-Dec-06 11:24N 44°18' E 008°29'2 2.7
2016-Dec-06 10:33N 44°16' E 008°28'0 0.3
2016-Dec-06 09:31N 44°17' E 008°28'2 2.2
2016-Dec-06 08:31N 44°18' E 008°29'0 0.0
2016-Dec-06 07:31N 44°18' E 008°29'0 0.0
2016-Dec-06 06:31N 44°18' E 008°29'0 0.0
2016-Dec-06 05:31N 44°18' E 008°29'0 0.0
2016-Dec-06 04:31N 44°18' E 008°29'0 0.0
2016-Dec-06 03:31N 44°18' E 008°29'0 0.0
2016-Dec-06 02:31N 44°18' E 008°29'0 0.0
2016-Dec-06 01:31N 44°18' E 008°29'0 0.0
2016-Dec-06 00:31N 44°18' E 008°29'0 0.0
2016-Dec-05 23:31N 44°18' E 008°29'0 0.0
2016-Dec-05 22:31N 44°18' E 008°29'0 0.0
2016-Dec-05 21:31N 44°18' E 008°29'0 0.0
2016-Dec-05 20:31N 44°18' E 008°29'0 0.0
2016-Dec-05 19:31N 44°18' E 008°29'0 0.0
2016-Dec-05 18:28N 44°18' E 008°29'1 1.0
2016-Dec-05 17:33N 44°19' E 008°31'1 0.9
2016-Dec-05 16:32N 44°18' E 008°29'0 0.0
2016-Dec-05 15:32N 44°18' E 008°29'0 0.0
2016-Dec-05 14:32N 44°18' E 008°29'0 0.0
2016-Dec-05 13:17N 44°18' E 008°29'0 0.0
2016-Dec-05 12:32N 44°18' E 008°29'0 0.0
2016-Dec-05 11:32N 44°18' E 008°29'0 0.0
2016-Dec-05 10:32N 44°18' E 008°29'0 0.0
2016-Dec-05 09:28N 44°18' E 008°29'2 2.3
2016-Dec-05 08:33N 44°17' E 008°28'1 0.8
2016-Dec-05 07:33N 44°16' E 008°28'4 3.5
2016-Dec-05 06:33N 44°19' E 008°31'0 0.3
2016-Dec-05 05:33N 44°19' E 008°30'1 0.1
2016-Dec-04 18:26N 44°18' E 008°29'0 0.0
2016-Dec-04 17:32N 44°18' E 008°29'0 0.0
2016-Dec-04 16:32N 44°18' E 008°29'0 0.0
2016-Dec-04 15:32N 44°18' E 008°29'0 0.0
2016-Dec-04 14:32N 44°18' E 008°29'0 0.0
2016-Dec-04 13:33N 44°19' E 008°29'1 1.0
2016-Dec-04 12:33N 44°18' E 008°31'3 2.7
2016-Dec-04 11:30N 44°17' E 008°28'0 0.4
2016-Dec-04 10:30N 44°17' E 008°28'2 1.7
2016-Dec-04 09:33N 44°18' E 008°29'1 0.8
2016-Dec-04 08:33N 44°19' E 008°29'0 0.1
2016-Dec-04 07:29N 44°18' E 008°29'0 0.0
2016-Dec-04 06:29N 44°18' E 008°29'0 0.0
2016-Dec-04 05:29N 44°18' E 008°29'0 0.0
2016-Dec-03 11:19N 44°18' E 008°29'1 1.0
2016-Dec-03 10:33N 44°18' E 008°29'2 1.7
2016-Dec-03 09:33N 44°17' E 008°28'0 0.2
2016-Dec-03 08:33N 44°16' E 008°28'2 1.9
2016-Dec-03 07:34N 44°18' E 008°29'1 0.7
2016-Dec-03 06:34N 44°18' E 008°29'0 0.0
2016-Dec-03 05:16N 44°18' E 008°29'0 0.0
2016-Dec-03 04:34N 44°18' E 008°29'0 0.0
2016-Dec-02 18:32N 44°18' E 008°29'0 0.0
2016-Dec-02 17:32N 44°18' E 008°29'0 0.0
2016-Dec-02 16:32N 44°18' E 008°29'0 0.0
2016-Dec-02 15:32N 44°18' E 008°29'0 0.0
2016-Dec-02 14:32N 44°18' E 008°29'0 0.0
2016-Dec-02 13:32N 44°18' E 008°29'0 0.0
2016-Dec-02 12:32N 44°18' E 008°29'0 0.0
2016-Dec-02 11:32N 44°18' E 008°29'0 0.1
2016-Dec-02 10:33N 44°19' E 008°29'0 0.1
2016-Dec-02 09:31N 44°18' E 008°29'0 0.0
2016-Dec-02 08:31N 44°18' E 008°29'0 0.0
2016-Dec-02 07:34N 44°18' E 008°29'1 0.8
2016-Dec-02 06:33N 44°19' E 008°30'3 3.1
2016-Dec-02 05:31N 44°16' E 008°28'3 0.1
2016-Dec-01 12:33N 44°18' E 008°29'0 0.0
2016-Dec-01 11:33N 44°18' E 008°29'0 0.0
2016-Dec-01 10:33N 44°18' E 008°29'0 0.0
2016-Dec-01 09:33N 44°18' E 008°29'0 0.0
2016-Dec-01 08:24N 44°18' E 008°29'0 0.0
2016-Dec-01 07:33N 44°18' E 008°29'0 0.0
2016-Dec-01 06:33N 44°18' E 008°29'1 0.5
2016-Dec-01 05:29N 44°19' E 008°30'0 0.1
2016-Dec-01 04:29N 44°19' E 008°30'0 0.4
2016-Dec-01 03:29N 44°18' E 008°29'0 0.0
2016-Dec-01 01:15N 44°18' E 008°29'0 0.0
2016-Dec-01 00:30N 44°18' E 008°29'0 0.0
2016-Nov-30 23:33N 44°18' E 008°29'0 0.0
2016-Nov-30 22:33N 44°18' E 008°29'0 0.0
2016-Nov-30 21:33N 44°18' E 008°29'0 0.0
2016-Nov-30 13:19N 44°18' E 008°29'0 0.0
2016-Nov-30 12:28N 44°18' E 008°29'0 0.0
2016-Nov-30 11:28N 44°18' E 008°29'0 0.0
2016-Nov-30 10:10N 44°18' E 008°29'0 0.0
2016-Nov-30 09:28N 44°18' E 008°29'0 0.0
2016-Nov-30 08:28N 44°18' E 008°29'0 0.0
2016-Nov-30 07:25N 44°18' E 008°29'0 0.0
2016-Nov-30 06:28N 44°18' E 008°29'1 0.5
2016-Nov-30 05:33N 44°19' E 008°30'0 0.1
2016-Nov-30 00:20N 44°18' E 008°29'0 0.0
2016-Nov-29 19:31N 44°18' E 008°29'0 0.0
2016-Nov-29 10:09N 44°18' E 008°29'0 0.0
2016-Nov-29 08:28N 44°18' E 008°29'  

Dump ship's entire track history